createdAt,value
2017-12-03T00:00:05.803Z,84.74
2017-12-03T00:01:05.801Z,84.64
2017-12-03T00:02:05.812Z,84.74
2017-12-03T00:03:05.822Z,84.64
2017-12-03T00:04:05.566Z,84.45
2017-12-03T00:05:05.578Z,84.64
2017-12-03T00:06:05.856Z,84.64
2017-12-03T00:07:05.596Z,84.64
2017-12-03T00:08:05.880Z,84.83
2017-12-03T00:09:05.622Z,84.83
2017-12-03T00:10:05.636Z,84.55
2017-12-03T00:11:05.651Z,84.74
2017-12-03T00:12:05.661Z,84.64
2017-12-03T00:13:07.354Z,84.64
2017-12-03T00:14:05.683Z,84.74
2017-12-03T00:15:05.691Z,84.92
2017-12-03T00:16:05.972Z,84.64
2017-12-03T00:17:05.986Z,84.55
2017-12-03T00:18:05.992Z,84.45
2017-12-03T00:19:06.094Z,84.64
2017-12-03T00:20:06.016Z,84.45
2017-12-03T00:21:06.029Z,84.83
2017-12-03T00:22:05.775Z,84.64
2017-12-03T00:23:06.053Z,84.74
2017-12-03T00:24:05.800Z,84.64
2017-12-03T00:25:06.076Z,84.55
2017-12-03T00:26:05.819Z,84.45
2017-12-03T00:27:06.092Z,84.55
2017-12-03T00:28:05.844Z,84.64
2017-12-03T00:29:06.121Z,84.74
2017-12-03T00:30:06.127Z,84.64
2017-12-03T00:31:05.875Z,84.64
2017-12-03T00:32:05.891Z,84.83
2017-12-03T00:33:05.900Z,84.74
2017-12-03T00:34:06.181Z,84.64
2017-12-03T00:35:05.919Z,84.92
2017-12-03T00:36:06.199Z,84.83
2017-12-03T00:37:06.207Z,84.74
2017-12-03T00:38:05.953Z,84.74
2017-12-03T00:39:06.231Z,84.74
2017-12-03T00:40:05.982Z,84.83
2017-12-03T00:41:05.988Z,85.02
2017-12-03T00:42:06.269Z,84.98
2017-12-03T00:43:06.277Z,85.02
2017-12-03T00:44:06.025Z,84.92
2017-12-03T00:45:06.035Z,84.78
2017-12-03T00:46:06.313Z,84.88
2017-12-03T00:47:06.318Z,84.88
2017-12-03T00:48:06.065Z,84.92
2017-12-03T00:49:06.343Z,84.98
2017-12-03T00:50:06.091Z,84.88
2017-12-03T00:51:06.371Z,84.69
2017-12-03T00:52:06.384Z,84.78
2017-12-03T00:53:06.397Z,84.69
2017-12-03T00:54:06.135Z,84.78
2017-12-03T00:55:06.147Z,84.88
2017-12-03T00:56:06.422Z,84.69
2017-12-03T00:57:06.440Z,84.88
2017-12-03T00:58:06.450Z,84.78
2017-12-03T00:59:06.454Z,84.88
2017-12-03T01:00:06.472Z,84.69
2017-12-03T01:01:06.215Z,84.69
2017-12-03T01:02:06.225Z,84.88
2017-12-03T01:03:06.505Z,84.78
2017-12-03T01:04:06.519Z,84.78
2017-12-03T01:05:06.261Z,84.78
2017-12-03T01:06:06.272Z,84.12
2017-12-03T01:07:06.546Z,84.78
2017-12-03T01:08:06.563Z,84.12
2017-12-03T01:09:06.573Z,84.41
2017-12-03T01:10:06.583Z,83.84
2017-12-03T01:11:06.326Z,84.22
2017-12-03T01:12:06.335Z,84.22
2017-12-03T01:13:06.619Z,84.41
2017-12-03T01:14:06.367Z,83.94
2017-12-03T01:15:06.376Z,84.41
2017-12-03T01:16:06.387Z,84.22
2017-12-03T01:17:06.670Z,84.12
2017-12-03T01:18:06.678Z,84.12
2017-12-03T01:19:06.682Z,84.22
2017-12-03T01:20:06.696Z,84.12
2017-12-03T01:21:06.712Z,84.12
2017-12-03T01:22:06.770Z,84.12
2017-12-03T01:23:06.727Z,84.22
2017-12-03T01:24:06.734Z,84.41
2017-12-03T01:25:06.481Z,84.41
2017-12-03T01:26:06.767Z,84.22
2017-12-03T01:27:06.776Z,84.03
2017-12-03T01:28:06.784Z,84.03
2017-12-03T01:29:06.796Z,84.5
2017-12-03T01:30:06.811Z,84.12
2017-12-03T01:31:06.548Z,84.12
2017-12-03T01:32:06.562Z,84.5
2017-12-03T01:33:06.842Z,84.12
2017-12-03T01:34:06.862Z,84.22
2017-12-03T01:35:06.863Z,84.22
2017-12-03T01:36:06.877Z,84.12
2017-12-03T01:37:06.617Z,84.22
2017-12-03T01:38:06.903Z,84.12
2017-12-03T01:39:06.636Z,84.5
2017-12-03T01:40:06.653Z,84.12
2017-12-03T01:41:06.931Z,84.22
2017-12-03T01:42:06.948Z,84.31
2017-12-03T01:43:06.956Z,84.22
2017-12-03T01:44:06.963Z,84.31
2017-12-03T01:45:06.972Z,84.41
2017-12-03T01:46:06.983Z,84.41
2017-12-03T01:47:06.993Z,84.41
2017-12-03T01:48:07.003Z,84.22
2017-12-03T01:49:07.022Z,84.22
2017-12-03T01:50:06.780Z,84.31
2017-12-03T01:51:07.035Z,84.41
2017-12-03T01:52:07.058Z,84.41
2017-12-03T01:53:06.795Z,84.12
2017-12-03T01:54:06.803Z,84.41
2017-12-03T01:55:07.083Z,84.31
2017-12-03T01:56:07.098Z,84.41
2017-12-03T01:57:06.833Z,84.41
2017-12-03T01:58:07.117Z,84.41
2017-12-03T01:59:07.135Z,84.5
2017-12-03T02:00:07.141Z,84.31
2017-12-03T02:01:07.191Z,84.31
2017-12-03T02:02:07.168Z,84.31
2017-12-03T02:03:07.181Z,84.12
2017-12-03T02:04:07.325Z,84.31
2017-12-03T02:05:07.196Z,84.12
2017-12-03T02:06:07.200Z,84.03
2017-12-03T02:07:06.951Z,84.41
2017-12-03T02:08:07.232Z,84.31
2017-12-03T02:09:07.240Z,84.31
2017-12-03T02:10:07.254Z,84.31
2017-12-03T02:11:07.257Z,84.31
2017-12-03T02:12:07.268Z,84.41
2017-12-03T02:13:07.276Z,84.31
2017-12-03T02:14:07.294Z,84.22
2017-12-03T02:15:07.305Z,84.31
2017-12-03T02:16:07.057Z,84.12
2017-12-03T02:17:07.336Z,84.31
2017-12-03T02:18:07.341Z,84.12
2017-12-03T02:19:07.345Z,84.31
2017-12-03T02:20:07.363Z,84.12
2017-12-03T02:21:07.367Z,84.31
2017-12-03T02:22:07.378Z,84.31
2017-12-03T02:23:07.392Z,84.69
2017-12-03T02:24:07.397Z,84.36
2017-12-03T02:25:07.412Z,84.12
2017-12-03T02:26:07.426Z,84.27
2017-12-03T02:27:07.436Z,84.27
2017-12-03T02:28:07.179Z,84.36
2017-12-03T02:29:07.463Z,84.27
2017-12-03T02:30:07.466Z,84.08
2017-12-03T02:31:07.483Z,84.46
2017-12-03T02:32:07.492Z,84.17
2017-12-03T02:33:07.496Z,84.12
2017-12-03T02:34:07.513Z,84.22
2017-12-03T02:35:07.516Z,84.36
2017-12-03T02:36:07.266Z,84.31
2017-12-03T02:37:07.535Z,83.8
2017-12-03T02:38:07.285Z,84.08
2017-12-03T02:39:07.569Z,84.08
2017-12-03T02:40:07.574Z,83.98
2017-12-03T02:41:07.584Z,84.08
2017-12-03T02:42:07.771Z,83.98
2017-12-03T02:43:07.608Z,83.8
2017-12-03T02:44:07.610Z,83.98
2017-12-03T02:45:07.627Z,84.17
2017-12-03T02:46:07.637Z,83.89
2017-12-03T02:47:07.647Z,84.08
2017-12-03T02:48:07.392Z,84.17
2017-12-03T02:49:07.675Z,83.8
2017-12-03T02:50:07.681Z,83.89
2017-12-03T02:51:07.687Z,84.17
2017-12-03T02:52:07.430Z,83.8
2017-12-03T02:53:07.722Z,83.98
2017-12-03T02:54:07.780Z,84.08
2017-12-03T02:55:07.733Z,83.8
2017-12-03T02:56:07.477Z,83.61
2017-12-03T02:57:07.504Z,83.8
2017-12-03T02:58:07.498Z,84.17
2017-12-03T02:59:07.511Z,83.8
2017-12-03T03:00:07.796Z,83.8
2017-12-03T03:01:07.795Z,83.7
2017-12-03T03:02:07.544Z,83.7
2017-12-03T03:03:07.817Z,83.8
2017-12-03T03:04:07.831Z,83.7
2017-12-03T03:05:07.835Z,83.8
2017-12-03T03:06:07.852Z,84.08
2017-12-03T03:07:07.856Z,83.89
2017-12-03T03:08:07.602Z,83.8
2017-12-03T03:09:07.614Z,83.89
2017-12-03T03:10:07.624Z,83.98
2017-12-03T03:11:07.903Z,83.8
2017-12-03T03:12:07.679Z,83.8
2017-12-03T03:13:07.928Z,83.51
2017-12-03T03:14:07.943Z,83.8
2017-12-03T03:15:07.940Z,83.7
2017-12-03T03:16:07.960Z,83.7
2017-12-03T03:17:07.964Z,84.08
2017-12-03T03:18:07.710Z,83.51
2017-12-03T03:19:07.718Z,83.89
2017-12-03T03:20:07.784Z,83.8
2017-12-03T03:21:08.018Z,84.17
2017-12-03T03:22:07.749Z,84.17
2017-12-03T03:23:07.759Z,83.98
2017-12-03T03:24:07.772Z,83.7
2017-12-03T03:25:07.782Z,83.51
2017-12-03T03:26:07.793Z,83.7
2017-12-03T03:27:08.183Z,83.51
2017-12-03T03:28:08.078Z,84.08
2017-12-03T03:29:08.097Z,83.8
2017-12-03T03:30:08.101Z,84.08
2017-12-03T03:31:08.119Z,83.61
2017-12-03T03:32:08.120Z,83.42
2017-12-03T03:33:08.139Z,83.8
2017-12-03T03:34:08.145Z,83.89
2017-12-03T03:35:08.162Z,84.08
2017-12-03T03:36:08.170Z,83.61
2017-12-03T03:37:08.177Z,83.89
2017-12-03T03:38:07.922Z,83.8
2017-12-03T03:39:08.204Z,84.08
2017-12-03T03:40:07.938Z,83.89
2017-12-03T03:41:08.215Z,83.51
2017-12-03T03:42:07.963Z,83.7
2017-12-03T03:43:08.232Z,83.8
2017-12-03T03:44:08.246Z,83.8
2017-12-03T03:45:08.260Z,83.61
2017-12-03T03:46:08.268Z,83.8
2017-12-03T03:47:08.274Z,83.7
2017-12-03T03:48:08.020Z,83.89
2017-12-03T03:49:08.301Z,83.42
2017-12-03T03:50:08.040Z,83.7
2017-12-03T03:51:08.052Z,83.51
2017-12-03T03:52:08.333Z,83.61
2017-12-03T03:53:08.350Z,83.8
2017-12-03T03:54:08.085Z,83.32
2017-12-03T03:55:08.096Z,83.32
2017-12-03T03:56:08.106Z,83.8
2017-12-03T03:57:08.386Z,83.61
2017-12-03T03:58:08.397Z,83.7
2017-12-03T03:59:08.403Z,83.89
2017-12-03T04:00:08.420Z,84.46
2017-12-03T04:01:08.426Z,85.41
2017-12-03T04:02:08.436Z,85.41
2017-12-03T04:03:08.448Z,85.5
2017-12-03T04:04:08.458Z,85.78
2017-12-03T04:05:08.470Z,85.31
2017-12-03T04:06:08.663Z,85.97
2017-12-03T04:07:08.496Z,84.84
2017-12-03T04:08:08.235Z,85.13
2017-12-03T04:09:08.508Z,84.55
2017-12-03T04:10:08.516Z,84.74
2017-12-03T04:11:08.532Z,83.98
2017-12-03T04:12:08.543Z,84.36
2017-12-03T04:13:08.550Z,84.55
2017-12-03T04:14:08.559Z,83.98
2017-12-03T04:15:08.571Z,84.27
2017-12-03T04:16:08.313Z,84.27
2017-12-03T04:17:08.591Z,83.98
2017-12-03T04:18:14.649Z,83.61
2017-12-03T04:19:08.613Z,83.7
2017-12-03T04:20:08.623Z,83.7
2017-12-03T04:21:08.638Z,84.08
2017-12-03T04:22:08.640Z,83.98
2017-12-03T04:23:08.656Z,84.17
2017-12-03T04:24:08.395Z,83.98
2017-12-03T04:25:08.403Z,84.36
2017-12-03T04:26:08.682Z,84.08
2017-12-03T04:27:08.690Z,84.27
2017-12-03T04:28:08.699Z,84.08
2017-12-03T04:29:08.718Z,84.27
2017-12-03T04:30:08.766Z,84.27
2017-12-03T04:31:08.767Z,84.17
2017-12-03T04:32:08.759Z,84.84
2017-12-03T04:33:08.754Z,85.41
2017-12-03T04:34:08.763Z,86.12
2017-12-03T04:35:08.510Z,86.26
2017-12-03T04:36:08.781Z,86.16
2017-12-03T04:37:08.791Z,86.35
2017-12-03T04:38:08.535Z,86.88
2017-12-03T04:39:08.811Z,86.64
2017-12-03T04:40:08.560Z,87.26
2017-12-03T04:41:08.840Z,86.98
2017-12-03T04:42:08.852Z,86.98
2017-12-03T04:43:08.863Z,87.16
2017-12-03T04:44:08.863Z,86.88
2017-12-03T04:45:08.876Z,87.35
2017-12-03T04:46:08.903Z,87.07
2017-12-03T04:47:08.894Z,86.79
2017-12-03T04:48:08.908Z,86.6
2017-12-03T04:49:08.920Z,86.6
2017-12-03T04:50:08.922Z,86.74
2017-12-03T04:51:08.938Z,86.88
2017-12-03T04:52:08.941Z,86.69
2017-12-03T04:53:09.007Z,86.98
2017-12-03T04:54:09.091Z,87.16
2017-12-03T04:55:08.982Z,87.07
2017-12-03T04:56:08.989Z,87.26
2017-12-03T04:57:08.996Z,87.16
2017-12-03T04:58:09.010Z,86.88
2017-12-03T04:59:09.020Z,87.26
2017-12-03T05:00:09.025Z,86.79
2017-12-03T05:01:08.770Z,86.98
2017-12-03T05:02:08.780Z,87.07
2017-12-03T05:03:09.057Z,86.6
2017-12-03T05:04:09.070Z,86.12
2017-12-03T05:05:09.072Z,86.12
2017-12-03T05:06:09.083Z,86.6
2017-12-03T05:07:08.866Z,86.5
2017-12-03T05:08:08.839Z,86.5
2017-12-03T05:09:08.852Z,86.6
2017-12-03T05:10:09.164Z,86.12
2017-12-03T05:11:09.239Z,86.12
2017-12-03T05:12:09.150Z,86.12
2017-12-03T05:13:09.156Z,86.12
2017-12-03T05:14:09.171Z,86.22
2017-12-03T05:15:09.183Z,86.31
2017-12-03T05:16:09.183Z,86.22
2017-12-03T05:17:09.199Z,85.74
2017-12-03T05:18:08.939Z,85.55
2017-12-03T05:19:08.951Z,85.27
2017-12-03T05:20:09.230Z,85.27
2017-12-03T05:21:09.244Z,85.17
2017-12-03T05:22:09.253Z,85.65
2017-12-03T05:23:09.259Z,85.74
2017-12-03T05:24:09.272Z,85.74
2017-12-03T05:25:09.282Z,85.36
2017-12-03T05:26:09.293Z,85.46
2017-12-03T05:27:09.295Z,85.08
2017-12-03T05:28:09.311Z,85.17
2017-12-03T05:29:09.313Z,85.27
2017-12-03T05:30:09.333Z,85.36
2017-12-03T05:31:09.352Z,85.55
2017-12-03T05:32:09.349Z,86.12
2017-12-03T05:33:09.355Z,86.03
2017-12-03T05:34:09.364Z,86.12
2017-12-03T05:35:09.113Z,86.12
2017-12-03T05:36:09.162Z,86.12
2017-12-03T05:37:09.136Z,86.12
2017-12-03T05:38:09.410Z,86.03
2017-12-03T05:39:09.413Z,86.22
2017-12-03T05:40:09.426Z,86.31
2017-12-03T05:41:09.438Z,85.65
2017-12-03T05:42:09.448Z,85.55
2017-12-03T05:43:09.456Z,85.74
2017-12-03T05:44:09.465Z,85.36
2017-12-03T05:45:09.481Z,85.46
2017-12-03T05:46:09.497Z,85.65
2017-12-03T05:47:09.495Z,85.74
2017-12-03T05:48:09.512Z,85.36
2017-12-03T05:49:09.513Z,85.17
2017-12-03T05:50:09.531Z,85.08
2017-12-03T05:51:09.540Z,85.27
2017-12-03T05:52:09.284Z,84.99
2017-12-03T05:53:09.567Z,84.99
2017-12-03T05:54:09.299Z,84.99
2017-12-03T05:55:09.574Z,85.08
2017-12-03T05:56:09.319Z,85.08
2017-12-03T05:57:09.329Z,84.99
2017-12-03T05:58:09.599Z,85.08
2017-12-03T05:59:09.344Z,85.08
2017-12-03T06:00:09.624Z,85.17
2017-12-03T06:01:09.673Z,84.51
2017-12-03T06:02:09.653Z,84.8
2017-12-03T06:03:09.650Z,84.23
2017-12-03T06:04:09.659Z,84.23
2017-12-03T06:05:09.667Z,84.23
2017-12-03T06:06:09.693Z,84.04
2017-12-03T06:07:09.692Z,84.42
2017-12-03T06:08:09.705Z,84.04
2017-12-03T06:09:09.712Z,84.13
2017-12-03T06:10:09.717Z,84.32
2017-12-03T06:11:09.735Z,84.42
2017-12-03T06:12:09.739Z,84.04
2017-12-03T06:13:09.481Z,83.85
2017-12-03T06:14:09.498Z,84.32
2017-12-03T06:15:09.512Z,84.32
2017-12-03T06:16:09.516Z,83.75
2017-12-03T06:17:09.789Z,83.85
2017-12-03T06:18:09.800Z,83.75
2017-12-03T06:19:09.808Z,84.13
2017-12-03T06:20:09.819Z,84.89
2017-12-03T06:21:41.632Z,84.42
2017-12-03T06:22:09.838Z,85.27
2017-12-03T06:23:09.849Z,85.17
2017-12-03T06:24:09.859Z,85.17
2017-12-03T06:25:09.604Z,85.17
2017-12-03T06:26:09.885Z,84.99
2017-12-03T06:27:09.884Z,84.42
2017-12-03T06:28:09.892Z,84.8
2017-12-03T06:29:09.911Z,84.8
2017-12-03T06:30:09.919Z,84.32
2017-12-03T06:31:09.930Z,83.94
2017-12-03T06:32:09.944Z,84.13
2017-12-03T06:33:09.950Z,84.42
2017-12-03T06:34:09.960Z,84.32
2017-12-03T06:35:09.967Z,84.32
2017-12-03T06:36:09.705Z,84.23
2017-12-03T06:37:09.981Z,84.32
2017-12-03T06:38:09.994Z,84.23
2017-12-03T06:39:10.008Z,84.13
2017-12-03T06:40:10.016Z,84.32
2017-12-03T06:41:09.759Z,84.04
2017-12-03T06:42:10.026Z,83.85
2017-12-03T06:43:10.047Z,84.04
2017-12-03T06:44:10.055Z,84.04
2017-12-03T06:45:10.065Z,84.13
2017-12-03T06:46:10.073Z,84.32
2017-12-03T06:47:10.084Z,84.13
2017-12-03T06:48:10.090Z,84.13
2017-12-03T06:49:09.833Z,84.04
2017-12-03T06:50:09.842Z,84.04
2017-12-03T06:51:10.119Z,84.32
2017-12-03T06:52:10.127Z,84.32
2017-12-03T06:53:10.155Z,84.23
2017-12-03T06:54:10.147Z,84.04
2017-12-03T06:55:10.156Z,84.23
2017-12-03T06:56:09.901Z,84.13
2017-12-03T06:57:09.913Z,84.23
2017-12-03T06:58:10.188Z,84.32
2017-12-03T06:59:09.932Z,84.13
2017-12-03T07:00:10.204Z,84.8
2017-12-03T07:01:10.218Z,84.89
2017-12-03T07:02:10.222Z,85.17
2017-12-03T07:03:09.971Z,86.31
2017-12-03T07:04:10.242Z,86.31
2017-12-03T07:05:10.254Z,86.6
2017-12-03T07:06:10.270Z,86.31
2017-12-03T07:07:10.005Z,86.12
2017-12-03T07:08:10.286Z,86.41
2017-12-03T07:09:10.296Z,85.84
2017-12-03T07:10:10.302Z,86.41
2017-12-03T07:11:10.311Z,85.55
2017-12-03T07:12:10.318Z,85.36
2017-12-03T07:13:10.334Z,85.36
2017-12-03T07:14:10.346Z,85.65
2017-12-03T07:15:10.350Z,85.27
2017-12-03T07:16:10.671Z,85.36
2017-12-03T07:17:10.370Z,85.17
2017-12-03T07:18:10.113Z,85.08
2017-12-03T07:19:10.387Z,84.8
2017-12-03T07:20:10.403Z,85.08
2017-12-03T07:21:10.416Z,84.89
2017-12-03T07:22:10.154Z,85.08
2017-12-03T07:23:10.434Z,85.08
2017-12-03T07:24:10.438Z,84.99
2017-12-03T07:25:10.459Z,84.99
2017-12-03T07:26:10.190Z,84.89
2017-12-03T07:27:10.469Z,85.08
2017-12-03T07:28:10.476Z,85.17
2017-12-03T07:29:10.215Z,85.08
2017-12-03T07:30:10.237Z,85.08
2017-12-03T07:31:10.237Z,85.08
2017-12-03T07:32:10.517Z,84.99
2017-12-03T07:33:10.530Z,84.7
2017-12-03T07:34:10.532Z,84.99
2017-12-03T07:35:10.279Z,85.17
2017-12-03T07:36:10.558Z,84.99
2017-12-03T07:37:10.297Z,84.8
2017-12-03T07:38:10.571Z,85.08
2017-12-03T07:39:10.577Z,84.89
2017-12-03T07:40:10.602Z,84.89
2017-12-03T07:41:10.371Z,84.99
2017-12-03T07:42:10.344Z,85.08
2017-12-03T07:43:10.619Z,85.08
2017-12-03T07:44:10.638Z,85.08
2017-12-03T07:45:10.637Z,85.08
2017-12-03T07:46:10.654Z,84.99
2017-12-03T07:47:10.656Z,84.7
2017-12-03T07:48:10.664Z,85.17
2017-12-03T07:49:10.414Z,85.08
2017-12-03T07:50:10.423Z,84.99
2017-12-03T07:51:10.707Z,85.08
2017-12-03T07:52:10.709Z,84.42
2017-12-03T07:53:10.736Z,84.51
2017-12-03T07:54:10.729Z,84.7
2017-12-03T07:55:10.468Z,84.42
2017-12-03T07:56:10.750Z,84.42
2017-12-03T07:57:10.752Z,84.99
2017-12-03T07:58:10.766Z,85.17
2017-12-03T07:59:10.771Z,84.89
2017-12-03T08:00:10.782Z,85.08
2017-12-03T08:01:10.792Z,85.08
2017-12-03T08:02:10.799Z,84.99
2017-12-03T08:03:10.811Z,84.99
2017-12-03T08:04:10.826Z,85.17
2017-12-03T08:05:10.566Z,85.17
2017-12-03T08:06:10.841Z,85.36
2017-12-03T08:07:10.852Z,85.27
2017-12-03T08:08:10.598Z,84.99
2017-12-03T08:09:10.875Z,85.27
2017-12-03T08:10:10.629Z,85.36
2017-12-03T08:11:10.894Z,85.27
2017-12-03T08:12:10.900Z,85.08
2017-12-03T08:13:10.911Z,85.46
2017-12-03T08:14:10.654Z,85.36
2017-12-03T08:15:10.666Z,85.46
2017-12-03T08:16:10.937Z,85.17
2017-12-03T08:17:10.956Z,84.8
2017-12-03T08:18:10.958Z,84.89
2017-12-03T08:19:10.965Z,84.89
2017-12-03T08:20:10.709Z,84.89
2017-12-03T08:21:10.981Z,84.89
2017-12-03T08:22:10.732Z,84.99
2017-12-03T08:23:11.011Z,84.99
2017-12-03T08:24:11.015Z,84.8
2017-12-03T08:25:10.755Z,84.89
2017-12-03T08:26:11.042Z,84.99
2017-12-03T08:27:10.780Z,84.8
2017-12-03T08:28:11.052Z,84.89
2017-12-03T08:29:11.061Z,85.17
2017-12-03T08:30:10.803Z,85.08
2017-12-03T08:31:11.085Z,84.42
2017-12-03T08:32:10.824Z,84.61
2017-12-03T08:33:11.101Z,84.7
2017-12-03T08:34:11.111Z,84.8
2017-12-03T08:35:11.122Z,84.7
2017-12-03T08:36:11.137Z,85.08
2017-12-03T08:37:11.138Z,84.7
2017-12-03T08:38:10.888Z,84.42
2017-12-03T08:39:11.158Z,84.42
2017-12-03T08:40:11.177Z,84.8
2017-12-03T08:41:11.183Z,84.32
2017-12-03T08:42:11.184Z,84.89
2017-12-03T08:43:10.929Z,85.08
2017-12-03T08:44:10.940Z,84.89
2017-12-03T08:45:10.955Z,85.08
2017-12-03T08:46:11.229Z,84.7
2017-12-03T08:47:11.234Z,84.42
2017-12-03T08:48:11.247Z,84.32
2017-12-03T08:49:11.259Z,84.42
2017-12-03T08:50:10.994Z,84.42
2017-12-03T08:51:11.005Z,84.61
2017-12-03T08:52:11.022Z,84.55
2017-12-03T08:53:11.293Z,84.74
2017-12-03T08:54:11.305Z,84.74
2017-12-03T08:55:11.049Z,84.65
2017-12-03T08:56:11.321Z,84.94
2017-12-03T08:57:11.334Z,84.65
2017-12-03T08:58:11.074Z,84.65
2017-12-03T08:59:11.351Z,84.74
2017-12-03T09:00:11.360Z,84.65
2017-12-03T09:01:11.379Z,84.74
2017-12-03T09:02:11.380Z,84.55
2017-12-03T09:03:11.391Z,84.46
2017-12-03T09:04:11.400Z,84.74
2017-12-03T09:05:11.418Z,84.55
2017-12-03T09:06:11.426Z,84.55
2017-12-03T09:07:11.438Z,84.74
2017-12-03T09:08:11.443Z,84.84
2017-12-03T09:09:11.451Z,84.94
2017-12-03T09:10:11.472Z,84.84
2017-12-03T09:11:11.477Z,84.94
2017-12-03T09:12:11.482Z,84.08
2017-12-03T09:13:11.496Z,84.36
2017-12-03T09:14:11.554Z,83.98
2017-12-03T09:15:11.512Z,84.27
2017-12-03T09:16:11.521Z,84.27
2017-12-03T09:17:11.527Z,83.8
2017-12-03T09:18:11.540Z,83.98
2017-12-03T09:19:11.556Z,83.7
2017-12-03T09:20:11.559Z,83.89
2017-12-03T09:21:11.572Z,83.61
2017-12-03T09:22:11.575Z,83.42
2017-12-03T09:23:11.589Z,83.32
2017-12-03T09:24:11.595Z,83.89
2017-12-03T09:25:11.612Z,82.94
2017-12-03T09:26:11.617Z,83.13
2017-12-03T09:27:11.634Z,83.04
2017-12-03T09:28:11.639Z,83.23
2017-12-03T09:29:11.382Z,83.17
2017-12-03T09:30:11.394Z,83.36
2017-12-03T09:31:11.667Z,83.27
2017-12-03T09:32:11.686Z,83.27
2017-12-03T09:33:11.700Z,83.55
2017-12-03T09:34:11.700Z,83.46
2017-12-03T09:35:11.707Z,83.84
2017-12-03T09:36:11.454Z,82.98
2017-12-03T09:37:11.735Z,83.17
2017-12-03T09:38:11.750Z,83.27
2017-12-03T09:39:11.747Z,82.98
2017-12-03T09:40:11.763Z,83.17
2017-12-03T09:41:11.771Z,82.79
2017-12-03T09:42:11.797Z,82.42
2017-12-03T09:43:11.796Z,82.51
2017-12-03T09:44:11.808Z,82.79
2017-12-03T09:45:11.817Z,82.6
2017-12-03T09:46:11.826Z,82.7
2017-12-03T09:47:11.563Z,82.79
2017-12-03T09:48:11.847Z,82.79
2017-12-03T09:49:11.855Z,82.89
2017-12-03T09:50:11.866Z,82.89
2017-12-03T09:51:11.886Z,83.08
2017-12-03T09:52:11.887Z,82.89
2017-12-03T09:53:11.894Z,82.42
2017-12-03T09:54:11.909Z,82.6
2017-12-03T09:55:11.916Z,82.42
2017-12-03T09:56:11.924Z,82.42
2017-12-03T09:57:11.937Z,82.04
2017-12-03T09:58:11.683Z,81.94
2017-12-03T09:59:11.960Z,82.13
2017-12-03T10:00:11.703Z,82.04
2017-12-03T10:01:11.978Z,82.42
2017-12-03T10:02:11.995Z,82.7
2017-12-03T10:03:12.000Z,82.13
2017-12-03T10:04:11.741Z,81.94
2017-12-03T10:05:12.015Z,82.04
2017-12-03T10:06:12.030Z,81.94
2017-12-03T10:07:12.036Z,81.85
2017-12-03T10:08:11.790Z,81.94
2017-12-03T10:09:12.063Z,82.13
2017-12-03T10:10:12.076Z,82.42
2017-12-03T10:11:12.085Z,82.79
2017-12-03T10:12:12.092Z,82.32
2017-12-03T10:13:11.847Z,82.42
2017-12-03T10:14:11.857Z,82.6
2017-12-03T10:15:12.124Z,82.32
2017-12-03T10:16:12.189Z,82.23
2017-12-03T10:17:11.881Z,82.32
2017-12-03T10:18:12.158Z,82.89
2017-12-03T10:19:11.899Z,82.98
2017-12-03T10:20:12.178Z,82.7
2017-12-03T10:21:12.185Z,82.89
2017-12-03T10:22:11.931Z,82.79
2017-12-03T10:23:12.218Z,82.79
2017-12-03T10:24:11.951Z,82.7
2017-12-03T10:25:12.231Z,82.7
2017-12-03T10:26:11.971Z,82.51
2017-12-03T10:27:12.249Z,82.51
2017-12-03T10:28:12.256Z,82.51
2017-12-03T10:29:12.271Z,82.89
2017-12-03T10:30:12.282Z,83.08
2017-12-03T10:31:12.301Z,82.89
2017-12-03T10:32:12.302Z,82.79
2017-12-03T10:33:12.307Z,82.89
2017-12-03T10:34:12.318Z,82.98
2017-12-03T10:35:12.335Z,82.98
2017-12-03T10:36:12.340Z,83.17
2017-12-03T10:37:12.349Z,82.6
2017-12-03T10:38:12.376Z,82.42
2017-12-03T10:39:12.376Z,82.6
2017-12-03T10:40:12.387Z,82.42
2017-12-03T10:41:12.399Z,82.98
2017-12-03T10:42:12.137Z,82.79
2017-12-03T10:43:12.418Z,82.98
2017-12-03T10:44:12.430Z,82.98
2017-12-03T10:45:12.434Z,82.6
2017-12-03T10:46:12.444Z,82.04
2017-12-03T10:47:12.463Z,81.85
2017-12-03T10:48:12.466Z,82.13
2017-12-03T10:49:12.212Z,82.13
2017-12-03T10:50:12.487Z,82.79
2017-12-03T10:51:12.543Z,82.98
2017-12-03T10:52:12.512Z,82.98
2017-12-03T10:53:12.528Z,83.08
2017-12-03T10:54:12.530Z,82.32
2017-12-03T10:55:12.273Z,82.04
2017-12-03T10:56:12.553Z,82.04
2017-12-03T10:57:12.564Z,82.04
2017-12-03T10:58:12.574Z,82.32
2017-12-03T10:59:12.585Z,82.42
2017-12-03T11:00:12.598Z,82.32
2017-12-03T11:01:12.602Z,82.89
2017-12-03T11:02:12.620Z,82.79
2017-12-03T11:03:12.629Z,82.89
2017-12-03T11:04:12.634Z,82.98
2017-12-03T11:05:12.652Z,82.79
2017-12-03T11:06:12.390Z,82.7
2017-12-03T11:07:12.401Z,82.89
2017-12-03T11:08:12.677Z,82.7
2017-12-03T11:09:12.691Z,82.7
2017-12-03T11:10:12.703Z,82.89
2017-12-03T11:11:12.443Z,82.42
2017-12-03T11:12:12.723Z,82.17
2017-12-03T11:13:12.737Z,82.17
2017-12-03T11:14:12.475Z,82.08
2017-12-03T11:15:12.757Z,82.17
2017-12-03T11:16:12.764Z,81.88
2017-12-03T11:17:12.510Z,81.88
2017-12-03T11:18:12.784Z,81.98
2017-12-03T11:19:12.794Z,82.46
2017-12-03T11:20:12.810Z,82.46
2017-12-03T11:21:12.825Z,82.17
2017-12-03T11:22:12.831Z,82.17
2017-12-03T11:23:12.838Z,82.17
2017-12-03T11:24:12.856Z,81.88
2017-12-03T11:25:12.598Z,81.98
2017-12-03T11:26:12.880Z,82.27
2017-12-03T11:27:12.887Z,82.17
2017-12-03T11:28:12.896Z,82.17
2017-12-03T11:29:12.903Z,82.17
2017-12-03T11:30:12.911Z,82.17
2017-12-03T11:31:12.664Z,82.65
2017-12-03T11:32:12.936Z,82.17
2017-12-03T11:33:12.684Z,81.88
2017-12-03T11:34:12.955Z,82.27
2017-12-03T11:35:12.974Z,82.08
2017-12-03T11:36:12.984Z,82.08
2017-12-03T11:37:12.995Z,82.46
2017-12-03T11:38:12.998Z,81.98
2017-12-03T11:39:13.014Z,82.36
2017-12-03T11:40:13.022Z,82.17
2017-12-03T11:41:12.768Z,81.88
2017-12-03T11:42:13.044Z,81.88
2017-12-03T11:43:13.060Z,82.08
2017-12-03T11:44:13.065Z,82.27
2017-12-03T11:45:13.087Z,83.03
2017-12-03T11:46:13.086Z,82.55
2017-12-03T11:47:13.100Z,82.93
2017-12-03T11:48:12.842Z,83.31
2017-12-03T11:49:12.853Z,83.4
2017-12-03T11:50:13.132Z,83.03
2017-12-03T11:51:13.142Z,83.12
2017-12-03T11:52:13.155Z,83.31
2017-12-03T11:53:12.894Z,83.69
2017-12-03T11:54:13.172Z,83.59
2017-12-03T11:55:13.188Z,83.69
2017-12-03T11:56:13.195Z,82.84
2017-12-03T11:57:13.207Z,82.74
2017-12-03T11:58:12.951Z,83.22
2017-12-03T11:59:13.236Z,83.03
2017-12-03T12:00:12.971Z,83.12
2017-12-03T12:01:13.256Z,82.65
2017-12-03T12:02:13.266Z,82.74
2017-12-03T12:03:13.274Z,82.74
2017-12-03T12:04:13.017Z,82.74
2017-12-03T12:05:13.025Z,82.65
2017-12-03T12:06:13.305Z,82.74
2017-12-03T12:07:13.321Z,82.65
2017-12-03T12:08:13.333Z,83.03
2017-12-03T12:09:13.387Z,82.74
2017-12-03T12:10:13.082Z,82.93
2017-12-03T12:11:13.092Z,82.93
2017-12-03T12:12:13.372Z,83.12
2017-12-03T12:13:13.382Z,82.84
2017-12-03T12:14:13.392Z,83.22
2017-12-03T12:15:13.504Z,82.98
2017-12-03T12:16:13.410Z,83.08
2017-12-03T12:17:13.424Z,83.17
2017-12-03T12:18:13.450Z,83.17
2017-12-03T12:19:13.445Z,83.08
2017-12-03T12:20:13.456Z,83.5
2017-12-03T12:21:13.475Z,83.36
2017-12-03T12:22:13.485Z,83.27
2017-12-03T12:23:13.496Z,83.17
2017-12-03T12:24:13.497Z,83.17
2017-12-03T12:25:13.514Z,83.46
2017-12-03T12:26:13.520Z,83.97
2017-12-03T12:27:13.549Z,83.97
2017-12-03T12:28:13.551Z,83.88
2017-12-03T12:29:13.289Z,83.59
2017-12-03T12:30:13.572Z,83.5
2017-12-03T12:31:13.572Z,83.5
2017-12-03T12:32:13.590Z,83.78
2017-12-03T12:33:13.599Z,83.78
2017-12-03T12:34:13.612Z,83.88
2017-12-03T12:35:13.625Z,83.46
2017-12-03T12:36:13.644Z,83.74
2017-12-03T12:37:13.648Z,83.78
2017-12-03T12:38:13.655Z,83.78
2017-12-03T12:39:13.398Z,83.59
2017-12-03T12:40:13.678Z,83.59
2017-12-03T12:41:13.683Z,83.97
2017-12-03T12:42:13.430Z,83.78
2017-12-03T12:43:13.705Z,83.78
2017-12-03T12:44:13.719Z,83.88
2017-12-03T12:45:13.731Z,83.97
2017-12-03T12:46:13.741Z,84.07
2017-12-03T12:47:13.485Z,84.17
2017-12-03T12:48:13.764Z,83.88
2017-12-03T12:49:13.527Z,83.5
2017-12-03T12:50:13.797Z,83.94
2017-12-03T12:51:13.796Z,84.12
2017-12-03T12:52:13.541Z,83.97
2017-12-03T12:53:13.815Z,83.46
2017-12-03T12:54:13.558Z,83.84
2017-12-03T12:55:13.833Z,83.55